sensor_id;sensor_type;location;lat;lon;timestamp;P1;durP1;ratioP1;P2;durP2;ratioP2
22632;SDS011;11483;55.828;37.488;2023-07-28T00:02:09;27.25;;;12.50;;
22632;SDS011;11483;55.828;37.488;2023-07-28T00:04:35;20.33;;;12.63;;
22632;SDS011;11483;55.828;37.488;2023-07-28T00:07:04;20.83;;;12.60;;
22632;SDS011;11483;55.828;37.488;2023-07-28T00:09:30;19.15;;;11.38;;
22632;SDS011;11483;55.828;37.488;2023-07-28T00:11:57;24.15;;;12.27;;
22632;SDS011;11483;55.828;37.488;2023-07-28T00:14:24;26.30;;;13.48;;
22632;SDS011;11483;55.828;37.488;2023-07-28T00:16:51;21.60;;;12.90;;
22632;SDS011;11483;55.828;37.488;2023-07-28T00:19:18;20.52;;;12.13;;
22632;SDS011;11483;55.828;37.488;2023-07-28T00:21:46;21.85;;;12.80;;
22632;SDS011;11483;55.828;37.488;2023-07-28T00:24:17;19.85;;;13.00;;
22632;SDS011;11483;55.828;37.488;2023-07-28T00:26:43;19.67;;;12.82;;
22632;SDS011;11483;55.828;37.488;2023-07-28T00:29:09;21.13;;;12.80;;
22632;SDS011;11483;55.828;37.488;2023-07-28T00:31:35;24.17;;;12.45;;
22632;SDS011;11483;55.828;37.488;2023-07-28T00:34:01;20.02;;;13.75;;
22632;SDS011;11483;55.828;37.488;2023-07-28T00:36:28;18.95;;;12.70;;
22632;SDS011;11483;55.828;37.488;2023-07-28T00:38:54;19.10;;;12.70;;
22632;SDS011;11483;55.828;37.488;2023-07-28T00:41:20;24.65;;;14.73;;
22632;SDS011;11483;55.828;37.488;2023-07-28T00:43:46;21.88;;;12.60;;
22632;SDS011;11483;55.828;37.488;2023-07-28T00:46:12;23.33;;;13.30;;
22632;SDS011;11483;55.828;37.488;2023-07-28T00:48:39;18.50;;;12.88;;
22632;SDS011;11483;55.828;37.488;2023-07-28T00:51:05;24.42;;;12.32;;
22632;SDS011;11483;55.828;37.488;2023-07-28T00:53:33;27.23;;;13.07;;
22632;SDS011;11483;55.828;37.488;2023-07-28T00:55:59;27.23;;;13.48;;
22632;SDS011;11483;55.828;37.488;2023-07-28T00:58:26;23.35;;;13.15;;
22632;SDS011;11483;55.828;37.488;2023-07-28T01:00:52;22.38;;;13.43;;
22632;SDS011;11483;55.828;37.488;2023-07-28T01:03:18;24.23;;;12.70;;
22632;SDS011;11483;55.828;37.488;2023-07-28T01:06:10;21.00;;;12.85;;
22632;SDS011;11483;55.828;37.488;2023-07-28T01:08:53;21.77;;;12.95;;
22632;SDS011;11483;55.828;37.488;2023-07-28T01:11:26;27.23;;;13.07;;
22632;SDS011;11483;55.828;37.488;2023-07-28T01:13:52;19.05;;;12.60;;
22632;SDS011;11483;55.828;37.488;2023-07-28T01:16:17;24.35;;;12.27;;
22632;SDS011;11483;55.828;37.488;2023-07-28T01:18:44;24.90;;;13.40;;
22632;SDS011;11483;55.828;37.488;2023-07-28T01:21:13;25.98;;;13.00;;
22632;SDS011;11483;55.828;37.488;2023-07-28T01:26:42;24.00;;;13.75;;
22632;SDS011;11483;55.828;37.488;2023-07-28T01:29:08;24.52;;;13.20;;
22632;SDS011;11483;55.828;37.488;2023-07-28T01:31:36;20.55;;;13.00;;
22632;SDS011;11483;55.828;37.488;2023-07-28T01:34:04;22.27;;;13.88;;
22632;SDS011;11483;55.828;37.488;2023-07-28T01:36:29;21.42;;;12.27;;
22632;SDS011;11483;55.828;37.488;2023-07-28T01:38:55;21.73;;;13.60;;
22632;SDS011;11483;55.828;37.488;2023-07-28T01:41:21;21.00;;;12.68;;
22632;SDS011;11483;55.828;37.488;2023-07-28T01:43:47;28.90;;;13.52;;
22632;SDS011;11483;55.828;37.488;2023-07-28T01:46:13;26.10;;;13.57;;
22632;SDS011;11483;55.828;37.488;2023-07-28T01:48:39;23.73;;;13.23;;
22632;SDS011;11483;55.828;37.488;2023-07-28T01:51:05;26.08;;;13.15;;
22632;SDS011;11483;55.828;37.488;2023-07-28T01:53:30;28.42;;;13.55;;
22632;SDS011;11483;55.828;37.488;2023-07-28T01:55:56;23.00;;;12.38;;
22632;SDS011;11483;55.828;37.488;2023-07-28T01:58:22;18.75;;;11.88;;
22632;SDS011;11483;55.828;37.488;2023-07-28T02:00:48;19.52;;;12.18;;
22632;SDS011;11483;55.828;37.488;2023-07-28T02:03:14;21.50;;;12.07;;
22632;SDS011;11483;55.828;37.488;2023-07-28T02:05:40;21.45;;;12.50;;
22632;SDS011;11483;55.828;37.488;2023-07-28T02:08:06;20.40;;;11.65;;
22632;SDS011;11483;55.828;37.488;2023-07-28T02:10:32;20.60;;;12.18;;
22632;SDS011;11483;55.828;37.488;2023-07-28T02:12:57;17.73;;;12.95;;
22632;SDS011;11483;55.828;37.488;2023-07-28T02:15:23;21.67;;;13.45;;
22632;SDS011;11483;55.828;37.488;2023-07-28T02:17:49;23.63;;;12.80;;
22632;SDS011;11483;55.828;37.488;2023-07-28T02:20:21;24.63;;;13.90;;
22632;SDS011;11483;55.828;37.488;2023-07-28T02:22:47;26.80;;;12.63;;
22632;SDS011;11483;55.828;37.488;2023-07-28T02:25:13;20.40;;;12.90;;
22632;SDS011;11483;55.828;37.488;2023-07-28T02:27:39;28.05;;;14.82;;
22632;SDS011;11483;55.828;37.488;2023-07-28T02:30:05;29.88;;;14.10;;
22632;SDS011;11483;55.828;37.488;2023-07-28T02:32:31;23.33;;;15.02;;
22632;SDS011;11483;55.828;37.488;2023-07-28T02:34:57;23.88;;;13.77;;
22632;SDS011;11483;55.828;37.488;2023-07-28T02:37:24;25.85;;;14.18;;
22632;SDS011;11483;55.828;37.488;2023-07-28T02:39:50;23.63;;;13.55;;
22632;SDS011;11483;55.828;37.488;2023-07-28T02:42:16;23.52;;;13.45;;
22632;SDS011;11483;55.828;37.488;2023-07-28T02:44:42;20.55;;;12.85;;
22632;SDS011;11483;55.828;37.488;2023-07-28T02:47:08;19.20;;;13.25;;
22632;SDS011;11483;55.828;37.488;2023-07-28T02:49:34;25.80;;;13.73;;
22632;SDS011;11483;55.828;37.488;2023-07-28T02:51:59;23.00;;;13.65;;
22632;SDS011;11483;55.828;37.488;2023-07-28T02:54:25;34.67;;;14.95;;
22632;SDS011;11483;55.828;37.488;2023-07-28T02:56:51;27.52;;;14.68;;
22632;SDS011;11483;55.828;37.488;2023-07-28T02:59:17;22.33;;;15.18;;
22632;SDS011;11483;55.828;37.488;2023-07-28T03:01:43;27.75;;;14.13;;
22632;SDS011;11483;55.828;37.488;2023-07-28T03:04:09;26.55;;;13.60;;
22632;SDS011;11483;55.828;37.488;2023-07-28T03:06:35;24.40;;;12.50;;
22632;SDS011;11483;55.828;37.488;2023-07-28T03:09:01;22.20;;;12.77;;
22632;SDS011;11483;55.828;37.488;2023-07-28T03:11:27;27.70;;;13.73;;
22632;SDS011;11483;55.828;37.488;2023-07-28T03:13:52;25.52;;;13.60;;
22632;SDS011;11483;55.828;37.488;2023-07-28T03:16:19;23.63;;;12.45;;
22632;SDS011;11483;55.828;37.488;2023-07-28T03:18:45;21.65;;;13.48;;
22632;SDS011;11483;55.828;37.488;2023-07-28T03:21:11;23.42;;;12.95;;
22632;SDS011;11483;55.828;37.488;2023-07-28T03:23:36;27.63;;;13.88;;
22632;SDS011;11483;55.828;37.488;2023-07-28T03:26:02;27.27;;;14.07;;
22632;SDS011;11483;55.828;37.488;2023-07-28T03:28:28;23.75;;;13.88;;
22632;SDS011;11483;55.828;37.488;2023-07-28T03:30:54;22.50;;;14.35;;
22632;SDS011;11483;55.828;37.488;2023-07-28T03:33:20;25.63;;;13.55;;
22632;SDS011;11483;55.828;37.488;2023-07-28T03:35:46;22.90;;;13.48;;
22632;SDS011;11483;55.828;37.488;2023-07-28T03:38:11;22.40;;;13.00;;
22632;SDS011;11483;55.828;37.488;2023-07-28T03:40:37;20.50;;;13.48;;
22632;SDS011;11483;55.828;37.488;2023-07-28T03:43:03;23.98;;;13.60;;
22632;SDS011;11483;55.828;37.488;2023-07-28T03:45:29;22.10;;;14.05;;
22632;SDS011;11483;55.828;37.488;2023-07-28T03:47:55;25.65;;;14.35;;
22632;SDS011;11483;55.828;37.488;2023-07-28T03:50:21;22.77;;;14.23;;
22632;SDS011;11483;55.828;37.488;2023-07-28T03:52:49;23.48;;;15.18;;
22632;SDS011;11483;55.828;37.488;2023-07-28T03:55:15;24.70;;;15.60;;
22632;SDS011;11483;55.828;37.488;2023-07-28T03:57:41;28.83;;;15.60;;
22632;SDS011;11483;55.828;37.488;2023-07-28T04:00:07;27.23;;;15.13;;
22632;SDS011;11483;55.828;37.488;2023-07-28T13:54:28;2.60;;;2.03;;
22632;SDS011;11483;55.828;37.488;2023-07-28T13:56:54;5.50;;;2.70;;
22632;SDS011;11483;55.828;37.488;2023-07-28T13:59:20;6.07;;;2.38;;
22632;SDS011;11483;55.828;37.488;2023-07-28T14:01:47;7.37;;;2.60;;
22632;SDS011;11483;55.828;37.488;2023-07-28T14:04:14;5.50;;;2.90;;
22632;SDS011;11483;55.828;37.488;2023-07-28T14:06:40;4.63;;;2.20;;
22632;SDS011;11483;55.828;37.488;2023-07-28T14:09:06;7.78;;;3.90;;
22632;SDS011;11483;55.828;37.488;2023-07-28T14:11:31;5.37;;;2.87;;
22632;SDS011;11483;55.828;37.488;2023-07-28T14:13:57;5.93;;;2.90;;
22632;SDS011;11483;55.828;37.488;2023-07-28T14:16:23;4.82;;;2.47;;
22632;SDS011;11483;55.828;37.488;2023-07-28T14:18:49;6.07;;;2.67;;
22632;SDS011;11483;55.828;37.488;2023-07-28T14:21:16;18.80;;;10.40;;
22632;SDS011;11483;55.828;37.488;2023-07-28T14:23:42;3.25;;;2.38;;
22632;SDS011;11483;55.828;37.488;2023-07-28T14:26:08;9.23;;;2.65;;
22632;SDS011;11483;55.828;37.488;2023-07-28T14:28:33;5.30;;;2.90;;
22632;SDS011;11483;55.828;37.488;2023-07-28T14:30:59;3.72;;;2.33;;
22632;SDS011;11483;55.828;37.488;2023-07-28T14:33:25;5.33;;;2.27;;
22632;SDS011;11483;55.828;37.488;2023-07-28T14:35:51;3.50;;;2.50;;
22632;SDS011;11483;55.828;37.488;2023-07-28T14:38:18;4.57;;;2.38;;
22632;SDS011;11483;55.828;37.488;2023-07-28T14:40:45;5.15;;;2.70;;
22632;SDS011;11483;55.828;37.488;2023-07-28T14:43:14;4.15;;;2.42;;
22632;SDS011;11483;55.828;37.488;2023-07-28T14:45:41;4.93;;;2.60;;
22632;SDS011;11483;55.828;37.488;2023-07-28T14:48:07;5.03;;;2.70;;
22632;SDS011;11483;55.828;37.488;2023-07-28T14:50:33;8.48;;;3.08;;
22632;SDS011;11483;55.828;37.488;2023-07-28T14:52:59;8.35;;;3.10;;
22632;SDS011;11483;55.828;37.488;2023-07-28T14:55:25;9.27;;;3.57;;
22632;SDS011;11483;55.828;37.488;2023-07-28T14:57:52;7.17;;;3.27;;
22632;SDS011;11483;55.828;37.488;2023-07-28T15:00:18;8.52;;;3.47;;
22632;SDS011;11483;55.828;37.488;2023-07-28T15:02:44;6.25;;;3.60;;
22632;SDS011;11483;55.828;37.488;2023-07-28T15:05:10;8.70;;;4.25;;
22632;SDS011;11483;55.828;37.488;2023-07-28T15:07:36;8.67;;;4.17;;
22632;SDS011;11483;55.828;37.488;2023-07-28T15:10:03;10.82;;;4.00;;
22632;SDS011;11483;55.828;37.488;2023-07-28T15:12:29;8.52;;;4.15;;
22632;SDS011;11483;55.828;37.488;2023-07-28T15:14:56;11.88;;;3.88;;
22632;SDS011;11483;55.828;37.488;2023-07-28T15:17:21;7.03;;;3.43;;
22632;SDS011;11483;55.828;37.488;2023-07-28T15:19:47;14.52;;;3.92;;
22632;SDS011;11483;55.828;37.488;2023-07-28T15:22:13;7.07;;;3.72;;
22632;SDS011;11483;55.828;37.488;2023-07-28T15:24:39;10.60;;;3.70;;
22632;SDS011;11483;55.828;37.488;2023-07-28T15:27:06;9.68;;;3.53;;
22632;SDS011;11483;55.828;37.488;2023-07-28T15:29:31;7.25;;;3.40;;
22632;SDS011;11483;55.828;37.488;2023-07-28T15:31:57;8.27;;;3.00;;
22632;SDS011;11483;55.828;37.488;2023-07-28T15:34:23;8.68;;;3.10;;
22632;SDS011;11483;55.828;37.488;2023-07-28T15:36:49;9.57;;;3.85;;
22632;SDS011;11483;55.828;37.488;2023-07-28T15:39:15;12.88;;;3.10;;
22632;SDS011;11483;55.828;37.488;2023-07-28T15:41:41;9.60;;;3.90;;
22632;SDS011;11483;55.828;37.488;2023-07-28T15:44:06;6.87;;;3.00;;
22632;SDS011;11483;55.828;37.488;2023-07-28T15:46:32;6.77;;;2.80;;
22632;SDS011;11483;55.828;37.488;2023-07-28T15:48:59;4.05;;;2.60;;
22632;SDS011;11483;55.828;37.488;2023-07-28T15:51:25;4.18;;;2.33;;
22632;SDS011;11483;55.828;37.488;2023-07-28T15:53:51;4.93;;;2.60;;
22632;SDS011;11483;55.828;37.488;2023-07-28T15:56:17;7.97;;;3.77;;
22632;SDS011;11483;55.828;37.488;2023-07-28T15:58:45;4.70;;;2.50;;
22632;SDS011;11483;55.828;37.488;2023-07-28T16:01:11;3.63;;;2.08;;
22632;SDS011;11483;55.828;37.488;2023-07-28T16:03:37;3.37;;;2.00;;
22632;SDS011;11483;55.828;37.488;2023-07-28T16:06:03;2.03;;;1.45;;
22632;SDS011;11483;55.828;37.488;2023-07-28T16:08:29;2.90;;;1.40;;
22632;SDS011;11483;55.828;37.488;2023-07-28T16:10:55;5.35;;;1.60;;
22632;SDS011;11483;55.828;37.488;2023-07-28T16:13:21;5.65;;;1.50;;
22632;SDS011;11483;55.828;37.488;2023-07-28T16:15:46;1.40;;;1.30;;
22632;SDS011;11483;55.828;37.488;2023-07-28T16:18:12;1.20;;;1.10;;
22632;SDS011;11483;55.828;37.488;2023-07-28T16:20:38;2.80;;;1.35;;
22632;SDS011;11483;55.828;37.488;2023-07-28T16:23:05;4.13;;;1.43;;
22632;SDS011;11483;55.828;37.488;2023-07-28T16:25:30;5.00;;;1.30;;
22632;SDS011;11483;55.828;37.488;2023-07-28T16:27:56;7.00;;;1.70;;
22632;SDS011;11483;55.828;37.488;2023-07-28T16:30:23;4.43;;;1.13;;
22632;SDS011;11483;55.828;37.488;2023-07-28T16:32:49;61.90;;;42.63;;
22632;SDS011;11483;55.828;37.488;2023-07-28T16:35:15;2.80;;;1.40;;
22632;SDS011;11483;55.828;37.488;2023-07-28T16:37:41;2.03;;;1.40;;
22632;SDS011;11483;55.828;37.488;2023-07-28T16:40:06;2.45;;;1.40;;
22632;SDS011;11483;55.828;37.488;2023-07-28T16:42:33;2.42;;;1.50;;
22632;SDS011;11483;55.828;37.488;2023-07-28T16:44:58;3.70;;;1.60;;
22632;SDS011;11483;55.828;37.488;2023-07-28T16:47:25;4.27;;;1.47;;
22632;SDS011;11483;55.828;37.488;2023-07-28T16:49:50;4.72;;;1.70;;
22632;SDS011;11483;55.828;37.488;2023-07-28T16:52:16;2.65;;;1.10;;
22632;SDS011;11483;55.828;37.488;2023-07-28T16:54:43;2.17;;;1.20;;
22632;SDS011;11483;55.828;37.488;2023-07-28T16:57:09;4.20;;;1.20;;
22632;SDS011;11483;55.828;37.488;2023-07-28T16:59:36;4.22;;;1.40;;
22632;SDS011;11483;55.828;37.488;2023-07-28T17:02:02;2.22;;;1.70;;
22632;SDS011;11483;55.828;37.488;2023-07-28T17:04:28;3.72;;;1.50;;
22632;SDS011;11483;55.828;37.488;2023-07-28T17:06:54;3.05;;;1.50;;
22632;SDS011;11483;55.828;37.488;2023-07-28T17:09:20;2.30;;;1.50;;
22632;SDS011;11483;55.828;37.488;2023-07-28T17:11:46;5.00;;;1.33;;
22632;SDS011;11483;55.828;37.488;2023-07-28T17:14:11;3.38;;;1.60;;
22632;SDS011;11483;55.828;37.488;2023-07-28T17:16:37;2.67;;;1.35;;
22632;SDS011;11483;55.828;37.488;2023-07-28T17:19:03;5.55;;;1.55;;
22632;SDS011;11483;55.828;37.488;2023-07-28T17:21:29;2.50;;;1.40;;
22632;SDS011;11483;55.828;37.488;2023-07-28T17:23:55;3.95;;;1.23;;
22632;SDS011;11483;55.828;37.488;2023-07-28T17:26:21;1.77;;;1.40;;
22632;SDS011;11483;55.828;37.488;2023-07-28T17:28:46;1.50;;;1.40;;
22632;SDS011;11483;55.828;37.488;2023-07-28T17:31:12;2.47;;;1.40;;
22632;SDS011;11483;55.828;37.488;2023-07-28T17:33:38;2.97;;;1.40;;
22632;SDS011;11483;55.828;37.488;2023-07-28T17:36:04;1.67;;;1.30;;
22632;SDS011;11483;55.828;37.488;2023-07-28T17:38:31;4.18;;;1.70;;
22632;SDS011;11483;55.828;37.488;2023-07-28T17:40:58;2.90;;;1.48;;
22632;SDS011;11483;55.828;37.488;2023-07-28T17:43:24;2.90;;;1.27;;
22632;SDS011;11483;55.828;37.488;2023-07-28T17:45:50;5.93;;;1.88;;
22632;SDS011;11483;55.828;37.488;2023-07-28T17:48:16;3.90;;;1.47;;
22632;SDS011;11483;55.828;37.488;2023-07-28T17:50:42;5.78;;;1.65;;
22632;SDS011;11483;55.828;37.488;2023-07-28T17:53:08;6.77;;;1.77;;
22632;SDS011;11483;55.828;37.488;2023-07-28T17:55:34;2.15;;;1.42;;
22632;SDS011;11483;55.828;37.488;2023-07-28T17:58:00;6.77;;;1.60;;
22632;SDS011;11483;55.828;37.488;2023-07-28T18:00:26;3.47;;;1.42;;
22632;SDS011;11483;55.828;37.488;2023-07-28T18:02:52;4.50;;;1.80;;
22632;SDS011;11483;55.828;37.488;2023-07-28T18:05:18;3.20;;;1.60;;
22632;SDS011;11483;55.828;37.488;2023-07-28T18:07:44;4.65;;;1.70;;
22632;SDS011;11483;55.828;37.488;2023-07-28T18:10:10;4.57;;;3.40;;
22632;SDS011;11483;55.828;37.488;2023-07-28T18:12:36;2.92;;;2.08;;
22632;SDS011;11483;55.828;37.488;2023-07-28T18:15:03;2.43;;;1.83;;
22632;SDS011;11483;55.828;37.488;2023-07-28T18:17:30;3.70;;;1.80;;
22632;SDS011;11483;55.828;37.488;2023-07-28T18:19:55;2.42;;;1.88;;
22632;SDS011;11483;55.828;37.488;2023-07-28T18:22:22;3.17;;;1.90;;
22632;SDS011;11483;55.828;37.488;2023-07-28T18:24:48;5.28;;;1.95;;
22632;SDS011;11483;55.828;37.488;2023-07-28T18:27:14;5.50;;;1.97;;
22632;SDS011;11483;55.828;37.488;2023-07-28T18:29:39;4.05;;;1.83;;
22632;SDS011;11483;55.828;37.488;2023-07-28T18:32:05;4.78;;;2.10;;
22632;SDS011;11483;55.828;37.488;2023-07-28T18:34:31;3.67;;;1.97;;
22632;SDS011;11483;55.828;37.488;2023-07-28T18:36:57;3.42;;;2.20;;
22632;SDS011;11483;55.828;37.488;2023-07-28T18:39:23;2.75;;;2.05;;
22632;SDS011;11483;55.828;37.488;2023-07-28T18:41:49;4.53;;;2.00;;
22632;SDS011;11483;55.828;37.488;2023-07-28T18:44:15;2.75;;;1.75;;
22632;SDS011;11483;55.828;37.488;2023-07-28T18:46:40;3.25;;;2.03;;
22632;SDS011;11483;55.828;37.488;2023-07-28T18:49:09;3.40;;;2.00;;
22632;SDS011;11483;55.828;37.488;2023-07-28T18:51:35;4.03;;;1.92;;
22632;SDS011;11483;55.828;37.488;2023-07-28T18:54:01;2.22;;;1.90;;
22632;SDS011;11483;55.828;37.488;2023-07-28T18:56:27;4.85;;;2.50;;
22632;SDS011;11483;55.828;37.488;2023-07-28T18:58:52;5.93;;;2.50;;
22632;SDS011;11483;55.828;37.488;2023-07-28T19:01:19;4.78;;;2.35;;
22632;SDS011;11483;55.828;37.488;2023-07-28T19:03:45;2.90;;;2.53;;
22632;SDS011;11483;55.828;37.488;2023-07-28T19:06:11;6.88;;;2.05;;
22632;SDS011;11483;55.828;37.488;2023-07-28T19:08:37;6.05;;;2.08;;
22632;SDS011;11483;55.828;37.488;2023-07-28T19:11:05;3.22;;;2.20;;
22632;SDS011;11483;55.828;37.488;2023-07-28T19:13:30;2.40;;;2.08;;
22632;SDS011;11483;55.828;37.488;2023-07-28T19:15:56;4.35;;;1.92;;
22632;SDS011;11483;55.828;37.488;2023-07-28T19:18:22;9.25;;;1.77;;
22632;SDS011;11483;55.828;37.488;2023-07-28T19:20:48;4.38;;;1.73;;
22632;SDS011;11483;55.828;37.488;2023-07-28T19:23:14;2.38;;;1.70;;
22632;SDS011;11483;55.828;37.488;2023-07-28T19:25:40;1.73;;;1.35;;
22632;SDS011;11483;55.828;37.488;2023-07-28T19:28:06;2.28;;;1.58;;
22632;SDS011;11483;55.828;37.488;2023-07-28T19:30:32;1.85;;;1.45;;
22632;SDS011;11483;55.828;37.488;2023-07-28T22:59:54;2.80;;;2.20;;
22632;SDS011;11483;55.828;37.488;2023-07-28T23:02:20;3.35;;;2.22;;
22632;SDS011;11483;55.828;37.488;2023-07-28T23:04:46;2.92;;;2.38;;
22632;SDS011;11483;55.828;37.488;2023-07-28T23:07:12;5.28;;;2.40;;
22632;SDS011;11483;55.828;37.488;2023-07-28T23:09:41;8.27;;;2.13;;
22632;SDS011;11483;55.828;37.488;2023-07-28T23:12:08;2.63;;;2.40;;
22632;SDS011;11483;55.828;37.488;2023-07-28T23:14:34;4.22;;;2.50;;
22632;SDS011;11483;55.828;37.488;2023-07-28T23:17:00;8.77;;;2.50;;
22632;SDS011;11483;55.828;37.488;2023-07-28T23:19:26;3.20;;;2.25;;
22632;SDS011;11483;55.828;37.488;2023-07-28T23:21:52;9.43;;;3.20;;
22632;SDS011;11483;55.828;37.488;2023-07-28T23:24:18;5.93;;;3.05;;
22632;SDS011;11483;55.828;37.488;2023-07-28T23:26:43;4.88;;;2.92;;
22632;SDS011;11483;55.828;37.488;2023-07-28T23:29:09;6.60;;;2.80;;
22632;SDS011;11483;55.828;37.488;2023-07-28T23:31:35;9.02;;;2.97;;
22632;SDS011;11483;55.828;37.488;2023-07-28T23:34:01;6.50;;;3.15;;
22632;SDS011;11483;55.828;37.488;2023-07-28T23:36:29;6.68;;;3.40;;
22632;SDS011;11483;55.828;37.488;2023-07-28T23:38:55;3.75;;;2.78;;
22632;SDS011;11483;55.828;37.488;2023-07-28T23:41:21;4.60;;;2.95;;
22632;SDS011;11483;55.828;37.488;2023-07-28T23:43:47;2.80;;;2.50;;
22632;SDS011;11483;55.828;37.488;2023-07-28T23:46:13;4.85;;;3.00;;
22632;SDS011;11483;55.828;37.488;2023-07-28T23:48:39;5.32;;;2.70;;
22632;SDS011;11483;55.828;37.488;2023-07-28T23:51:04;4.65;;;2.60;;
22632;SDS011;11483;55.828;37.488;2023-07-28T23:53:30;5.53;;;2.53;;
22632;SDS011;11483;55.828;37.488;2023-07-28T23:55:56;4.63;;;2.85;;
22632;SDS011;11483;55.828;37.488;2023-07-28T23:58:22;5.97;;;3.13;;
